Fence, WI (54120)

5:08 AM CDT on July 24, 2016 (GMT -0500)
Nouveau-Vision | | Change Station

Elev 1512 ft 45.66 °N, 88.45 °W | Updated 12 minutes ago

Mist
Mist
68.4 °F
Feels Like 68.4 °F
N
0.0
Wind Variable Wind from WSW

Today
High -- | Low -- °F
--% Chance of Precip.
Yesterday
High -- | Low -- °F
Precip. -- in
Pressure 29.81 in
Visibility 0.8 miles
Clouds
Dew Point 67 °F
Humidity 95%
Rainfall 0.13 in
Snow Depth Not available.
5:28 AM 8:31 PM
Waning Gibbous, 77% visible
SPECI KIMT 241004Z AUTO 14003KT 3/4SM BR VV002 20/19 A2981 RMK AO2 T02000189
Pressure 29.81 in
Visibility 0.8 miles
Clouds
Dew Point 67 °F
Humidity 95%
Rainfall 0.13 in
Snow Depth Not available.
5:28 AM 8:31 PM
Waning Gibbous, 77% visible
SPECI KIMT 241004Z AUTO 14003KT 3/4SM BR VV002 20/19 A2981 RMK AO2 T02000189

10-Day Weather Forecast

Almanac

Astronomy

Jul. 24, 2016 Rise Set
Actual Time
Civil Twilight
Nautical Twilight
Astronomical Twilight
Moon
Length of Visible Light
Length of Day
Tomorrow will be .
, % of the Moon is Illuminated

Today's Extremes

State Highs State Lows

Community

WunderPhotos

Upload Photos

1,927,040 photos uploaded!

WunderBlog® & News

Nearby

Air Quality

  Air Quality AQ Index Pollutant
Not available.

Snow Depth

Station Depth Elevation

Earthquake Activity

City Distance Mag. Time & Date
Minimum magnitude displayed is 2.5.

Coastal Water Temperatures

Place Temperature

Stations

Nearby Weather Stations

Station Location Temp. Windchill Dew Point Humidity Wind Precip. Elev Updated Type
                   

Watches & Warnings

There are currently no watches in effect.